Time;durP1;ratioP1;P1;durP2;ratioP2;P2;SDS_P1;SDS_P2;PMS_P1;PMS_P2;Temp;Humidity;BMP_temperature;BMP_pressure;BME280_temperature;BME280_humidity;BME280_pressure;Samples;Min_cycle;Max_cycle;Signal;HPM_P1;HPM_P2
2019/04/23 00:01:17;;;;;;;3.6;2.7;;;;;;;24.9;22.36621;985.6241;;;;
2019/04/23 00:03:37;;;;;;;3.3;3;;;;;;;24.89;22.36621;985.6277;;;;
2019/04/23 00:06:03;;;;;;;3.6;3;;;;;;;24.9;22.35449;985.6241;;;;
2019/04/23 00:08:34;;;;;;;3.3;2.8;;;;;;;24.9;22.31836;985.5983;;;;
2019/04/23 00:11:04;;;;;;;3.1;2.8;;;;;;;24.88;22.31836;985.6296;;;;
2019/04/23 00:13:34;;;;;;;3.1;2.7;;;;;;;24.87;22.27051;985.4803;;;;
2019/04/23 00:16:06;;;;;;;2.8;2.5;;;;;;;24.88;22.24707;985.5061;;;;
2019/04/23 00:18:40;;;;;;;4.1;2.8;;;;;;;24.88;22.22363;985.4924;;;;
2019/04/23 00:21:14;;;;;;;2.8;2.6;;;;;;;24.88;22.1875;985.4375;;;;
2019/04/23 00:23:37;;;;;;;3.8;2.9;;;;;;;24.89;22.18848;985.4573;;;;
2019/04/23 00:26:08;;;;;;;3.8;2.9;;;;;;;24.9;22.12891;985.4514;;;;
2019/04/23 00:28:40;;;;;;;3.1;2.8;;;;;;;24.88;22.0918;985.3923;;;;
2019/04/23 00:31:09;;;;;;;3.2;2.9;;;;;;;24.87;22.10449;985.4529;;;;
2019/04/23 00:33:40;;;;;;;3.6;2.8;;;;;;;24.86;22.12695;985.4235;;;;
2019/04/23 00:36:11;;;;;;;4.3;3;;;;;;;24.84;22.14941;985.3937;;;;
2019/04/23 00:38:42;;;;;;;3.7;3;;;;;;;24.87;22.06836;985.4274;;;;
2019/04/23 00:41:12;;;;;;;3.7;2.9;;;;;;;24.85;22.04395;985.3998;;;;
2019/04/23 00:43:44;;;;;;;3.2;2.9;;;;;;;24.84;22.05469;985.3506;;;;
2019/04/23 00:46:13;;;;;;;3.6;2.7;;;;;;;24.85;22.04395;985.3586;;;;
2019/04/23 00:48:46;;;;;;;3.1;2.8;;;;;;;24.87;21.99707;985.3766;;;;
2019/04/23 00:51:15;;;;;;;3.8;2.9;;;;;;;24.85;22.04395;985.3175;;;;
2019/04/23 00:53:46;;;;;;;3.7;2.9;;;;;;;24.84;22.04297;985.3017;;;;
2019/04/23 00:56:16;;;;;;;3.3;2.6;;;;;;;24.85;21.99609;985.2764;;;;
2019/04/23 00:58:46;;;;;;;4.8;2.8;;;;;;;24.82;22.00684;985.2464;;;;
2019/04/23 01:01:17;;;;;;;2.7;2.5;;;;;;;24.81;22.00684;985.2073;;;;
2019/04/23 01:03:48;;;;;;;4.3;2.8;;;;;;;24.84;21.95996;985.2566;;;;
2019/04/23 01:06:19;;;;;;;2.7;2.5;;;;;;;24.82;21.9707;985.1153;;;;
2019/04/23 01:08:49;;;;;;;3.5;2.9;;;;;;;24.81;21.95898;985.1113;;;;
2019/04/23 01:11:20;;;;;;;2.9;2.7;;;;;;;24.79;22.01758;985.1442;;;;
2019/04/23 01:13:50;;;;;;;3.9;2.9;;;;;;;24.81;21.95801;985.0991;;;;
2019/04/23 01:16:22;;;;;;;3.7;3;;;;;;;24.8;21.95801;985.1108;;;;
2019/04/23 01:19:04;;;;;;;3.6;2.7;;;;;;;24.82;21.91211;985.0503;;;;
2019/04/23 01:21:39;;;;;;;4;3;;;;;;;24.8;21.93457;985.0228;;;;
2019/04/23 01:24:03;;;;;;;3.8;2.8;;;;;;;24.8;21.92285;985.0543;;;;
2019/04/23 01:26:33;;;;;;;3.2;2.9;;;;;;;24.81;21.91113;985.0524;;;;
2019/04/23 01:28:59;;;;;;;3.6;2.9;;;;;;;24.81;21.91113;985.0661;;;;
2019/04/23 01:31:29;;;;;;;4;3.1;;;;;;;24.8;21.91113;985.064;;;;
2019/04/23 01:34:01;;;;;;;3.7;2.8;;;;;;;24.82;21.92383;984.9918;;;;
2019/04/23 01:36:32;;;;;;;3.4;3.1;;;;;;;24.8;21.92188;985.0874;;;;
2019/04/23 01:39:01;;;;;;;4.1;3;;;;;;;24.79;21.94531;985.1088;;;;
2019/04/23 01:41:32;;;;;;;3.7;2.8;;;;;;;24.79;21.95801;985.0579;;;;
2019/04/23 01:44:03;;;;;;;3.3;3;;;;;;;24.77;21.98047;985.0772;;;;
2019/04/23 01:46:33;;;;;;;4.1;3.1;;;;;;;24.77;21.99219;985.0909;;;;
2019/04/23 01:49:05;;;;;;;3.7;2.9;;;;;;;24.77;22.00391;985.0909;;;;
2019/04/23 01:51:34;;;;;;;5.5;2.9;;;;;;;24.78;22.0166;985.0518;;;;
2019/04/23 01:54:07;;;;;;;4.1;2.8;;;;;;;24.77;22.00391;985.0989;;;;
2019/04/23 01:56:36;;;;;;;4.8;2.9;;;;;;;24.78;22.0166;985.0518;;;;
2019/04/23 01:59:07;;;;;;;3.6;3.1;;;;;;;24.77;22.02734;985.0578;;;;
2019/04/23 02:01:39;;;;;;;2.9;2.6;;;;;;;24.77;22.05176;985.0675;;;;
2019/04/23 02:04:10;;;;;;;4.6;3.1;;;;;;;24.75;22.07422;985.0084;;;;
2019/04/23 02:06:40;;;;;;;3.6;3;;;;;;;24.75;22.08691;984.975;;;;
2019/04/23 02:09:10;;;;;;;3.5;3.1;;;;;;;24.74;22.09766;984.9964;;;;
2019/04/23 02:11:42;;;;;;;3;2.7;;;;;;;24.74;22.13281;985.0004;;;;
2019/04/23 02:14:12;;;;;;;4.4;3.4;;;;;;;24.75;22.14453;984.9495;;;;
2019/04/23 02:16:42;;;;;;;3.1;2.8;;;;;;;24.73;22.16797;984.912;;;;
2019/04/23 02:19:13;;;;;;;3.8;3;;;;;;;24.73;22.16797;984.8943;;;;
2019/04/23 02:24:17;;;;;;;3.2;2.9;;;;;;;24.72;22.21484;984.8962;;;;
2019/04/23 02:26:49;;;;;;;4;3.1;;;;;;;24.73;22.21582;984.9355;;;;
2019/04/23 02:29:19;;;;;;;3.4;3.1;;;;;;;24.73;22.22754;984.8806;;;;
2019/04/23 02:31:51;;;;;;;3.2;2.9;;;;;;;24.71;22.27344;984.8998;;;;
2019/04/23 02:34:20;;;;;;;3.3;3;;;;;;;24.71;22.28516;984.8588;;;;
2019/04/23 02:36:52;;;;;;;3.4;2.9;;;;;;;24.71;22.28613;984.853;;;;
2019/04/23 02:39:21;;;;;;;3.1;2.8;;;;;;;24.71;22.29785;984.8491;;;;
2019/04/23 02:41:52;;;;;;;3.8;3.2;;;;;;;24.7;22.33203;984.884;;;;
2019/04/23 02:44:22;;;;;;;3.4;2.8;;;;;;;24.69;22.35547;984.8546;;;;
2019/04/23 02:46:54;;;;;;;3.6;3;;;;;;;24.68;22.36719;984.7645;;;;
2019/04/23 02:49:25;;;;;;;3.4;3.1;;;;;;;24.67;22.38965;984.7133;;;;
2019/04/23 02:51:55;;;;;;;3.6;3.2;;;;;;;24.68;22.40234;984.7153;;;;
2019/04/23 02:54:26;;;;;;;3.5;2.8;;;;;;;24.67;22.42578;984.6721;;;;
2019/04/23 02:56:58;;;;;;;3;2.7;;;;;;;24.67;22.4375;984.6721;;;;
2019/04/23 02:59:27;;;;;;;3.5;3.2;;;;;;;24.67;22.4375;984.7916;;;;
2019/04/23 03:01:58;;;;;;;3.3;3;;;;;;;24.66;22.49609;984.7701;;;;
2019/04/23 03:04:28;;;;;;;3.5;3.1;;;;;;;24.66;22.50879;984.8013;;;;
2019/04/23 03:06:59;;;;;;;3.9;3.1;;;;;;;24.65;22.53223;984.7896;;;;
2019/04/23 03:09:30;;;;;;;3.5;3;;;;;;;24.64;22.55469;984.7697;;;;
2019/04/23 03:12:01;;;;;;;3.7;3.1;;;;;;;24.66;22.5791;984.8113;;;;
2019/04/23 03:14:41;;;;;;;4.3;3.1;;;;;;;24.67;22.58008;984.8407;;;;
2019/04/23 03:17:35;;;;;;;3.7;3.2;;;;;;;24.67;22.5918;984.7896;;;;
2019/04/23 03:19:36;;;;;;;3.7;3.3;;;;;;;24.69;22.59277;984.8312;;;;
2019/04/23 03:22:07;;;;;;;3.4;3.1;;;;;;;24.7;22.59277;984.8058;;;;
2019/04/23 03:26:59;;;;;;;3.5;3.2;;;;;;;24.69;22.67578;984.7429;;;;
2019/04/23 03:29:31;;;;;;;3.9;3.5;;;;;;;24.71;22.70117;984.7393;;;;
2019/04/23 03:32:00;;;;;;;5.1;3.3;;;;;;;24.71;22.72461;984.7336;;;;
2019/04/23 03:34:32;;;;;;;3.6;3.3;;;;;;;24.71;22.72461;984.7336;;;;
2019/04/23 03:37:02;;;;;;;3.8;3.1;;;;;;;24.72;22.70117;984.751;;;;
2019/04/23 03:39:32;;;;;;;3.7;3.2;;;;;;;24.72;22.70117;984.6905;;;;
2019/04/23 03:42:03;;;;;;;3.3;3;;;;;;;24.71;22.72461;984.5787;;;;
2019/04/23 03:44:34;;;;;;;3.7;3.4;;;;;;;24.72;22.73633;984.6219;;;;
2019/04/23 03:47:06;;;;;;;3.4;3.1;;;;;;;24.72;22.74805;984.6276;;;;
2019/04/23 03:49:37;;;;;;;3.9;3.2;;;;;;;24.73;22.76074;984.5477;;;;
2019/04/23 03:52:06;;;;;;;3.4;3.1;;;;;;;24.72;22.7832;984.5767;;;;
2019/04/23 03:54:37;;;;;;;3.8;3.2;;;;;;;24.73;22.7959;984.5614;;;;
2019/04/23 03:57:07;;;;;;;3.7;3.2;;;;;;;24.73;22.82031;984.4554;;;;
2019/04/23 03:59:38;;;;;;;4.1;3.5;;;;;;;24.71;22.84277;984.5005;;;;
2019/04/23 04:02:57;;;;;;;3.7;3.4;;;;;;;24.72;22.87891;984.5356;;;;
2019/04/23 04:05:28;;;;;;;3.9;3.5;;;;;;;24.71;22.92578;984.4456;;;;
2019/04/23 04:07:59;;;;;;;4.3;3.9;;;;;;;24.68;22.9834;984.4411;;;;
2019/04/23 04:10:29;;;;;;;3.9;3.5;;;;;;;24.68;23.00781;984.4216;;;;
2019/04/23 04:13:00;;;;;;;5.6;3.7;;;;;;;24.68;23.03125;984.3842;;;;
2019/04/23 04:15:31;;;;;;;3.9;3.6;;;;;;;24.67;23.06641;984.533;;;;
2019/04/23 04:18:03;;;;;;;5.8;3.7;;;;;;;24.67;23.08887;984.5488;;;;
2019/04/23 04:20:32;;;;;;;5.2;3.5;;;;;;;24.67;23.13672;984.5075;;;;
2019/04/23 04:23:04;;;;;;;4.2;3.6;;;;;;;24.66;23.17188;984.4918;;;;
2019/04/23 04:25:33;;;;;;;3.6;3.3;;;;;;;24.66;23.21973;984.4821;;;;
2019/04/23 04:28:04;;;;;;;4.6;3.8;;;;;;;24.66;23.21973;984.4447;;;;
2019/04/23 04:30:35;;;;;;;4.1;3.7;;;;;;;24.64;23.26563;984.3856;;;;
2019/04/23 04:33:06;;;;;;;4;3.6;;;;;;;24.64;23.25391;984.3211;;;;
2019/04/23 04:35:38;;;;;;;4.5;3.9;;;;;;;24.65;23.24316;984.3878;;;;
2019/04/23 04:38:10;;;;;;;3.9;3.5;;;;;;;24.65;23.24316;984.3917;;;;
2019/04/23 04:40:38;;;;;;;4;3.6;;;;;;;24.66;23.2666;984.382;;;;
2019/04/23 04:43:09;;;;;;;4.3;3.7;;;;;;;24.65;23.30176;984.4074;;;;
2019/04/23 04:45:39;;;;;;;4.2;3.8;;;;;;;24.64;23.30176;984.3583;;;;
2019/04/23 04:48:10;;;;;;;5;3.7;;;;;;;24.65;23.29102;984.3506;;;;
2019/04/23 04:50:43;;;;;;;4.5;4;;;;;;;24.65;23.31348;984.3466;;;;
2019/04/23 04:53:12;;;;;;;4.7;3.7;;;;;;;24.63;23.34863;984.3522;;;;
2019/04/23 04:55:43;;;;;;;4;3.7;;;;;;;24.63;23.36035;984.315;;;;
2019/04/23 04:58:13;;;;;;;5.1;4;;;;;;;24.64;23.36035;984.3994;;;;
2019/04/23 05:00:43;;;;;;;4.4;4;;;;;;;24.66;23.36133;984.3998;;;;
2019/04/23 05:03:16;;;;;;;4.5;4;;;;;;;24.65;23.37402;984.378;;;;
2019/04/23 05:05:45;;;;;;;4.5;4.1;;;;;;;24.67;23.3623;984.3781;;;;
2019/04/23 05:08:15;;;;;;;4.2;3.9;;;;;;;24.67;23.38574;984.3704;;;;
2019/04/23 05:10:46;;;;;;;4.5;4.1;;;;;;;24.68;23.38672;984.3999;;;;
2019/04/23 05:13:16;;;;;;;4.7;4.2;;;;;;;24.68;23.42188;984.3353;;;;
2019/04/23 05:15:47;;;;;;;5.5;4.3;;;;;;;24.67;23.48047;984.337;;;;
2019/04/23 05:18:33;;;;;;;5.9;4.8;;;;;;;24.66;23.52734;984.3253;;;;
2019/04/23 05:20:50;;;;;;;5.4;4.4;;;;;;;24.69;23.49316;984.2511;;;;
2019/04/23 05:23:23;;;;;;;4.6;4.2;;;;;;;24.68;23.50586;984.1473;;;;
2019/04/23 05:25:50;;;;;;;4.6;4.1;;;;;;;24.7;23.48242;984.1967;;;;
2019/04/23 05:28:18;;;;;;;4.7;4.3;;;;;;;24.71;23.49512;984.2124;;;;
2019/04/23 05:30:48;;;;;;;6;4.7;;;;;;;24.73;23.48438;984.2811;;;;
2019/04/23 05:33:19;;;;;;;5.2;4.5;;;;;;;24.74;23.50781;984.2283;;;;
2019/04/23 05:35:49;;;;;;;4.5;4.1;;;;;;;24.75;23.49707;984.248;;;;
2019/04/23 05:38:21;;;;;;;5.6;4.4;;;;;;;24.77;23.53418;984.2247;;;;
2019/04/23 05:40:52;;;;;;;4.9;4.4;;;;;;;24.79;23.53418;984.2308;;;;
2019/04/23 05:43:23;;;;;;;5.5;4.2;;;;;;;24.8;23.52246;984.2095;;;;
2019/04/23 05:45:52;;;;;;;4.9;4.4;;;;;;;24.82;23.5127;984.1998;;;;
2019/04/23 05:48:24;;;;;;;5;4.5;;;;;;;24.84;23.48926;984.1708;;;;
2019/04/23 05:50:53;;;;;;;5.5;4.6;;;;;;;24.84;23.50195;984.1708;;;;
2019/04/23 05:53:24;;;;;;;5;4.5;;;;;;;24.86;23.49121;984.1887;;;;
2019/04/23 05:55:54;;;;;;;5.2;4.7;;;;;;;24.89;23.46875;984.1144;;;;
2019/04/23 05:58:27;;;;;;;5;4.3;;;;;;;24.88;23.48047;984.1656;;;;
2019/04/23 06:01:08;;;;;;;5.2;4.6;;;;;;;24.92;23.4707;984.1012;;;;
2019/04/23 06:03:26;;;;;;;5.1;4.7;;;;;;;24.94;23.45898;984.1428;;;;
2019/04/23 06:05:55;;;;;;;5.5;4.4;;;;;;;24.95;23.44824;984.1251;;;;
2019/04/23 06:08:25;;;;;;;5;4.5;;;;;;;24.97;23.44922;984.1214;;;;
2019/04/23 06:10:57;;;;;;;5.3;4.5;;;;;;;24.97;23.44922;984.098;;;;
2019/04/23 06:13:26;;;;;;;4.9;4.4;;;;;;;25;23.46289;984.0553;;;;
2019/04/23 06:15:57;;;;;;;4.9;4.4;;;;;;;25.03;23.45215;984.0928;;;;
2019/04/23 06:18:27;;;;;;;4.9;4.5;;;;;;;25.03;23.48828;984.1555;;;;
2019/04/23 06:20:55;;;;;;;5.3;4.6;;;;;;;25.06;23.52441;984.1224;;;;
2019/04/23 06:23:34;;;;;;;5.9;4.6;;;;;;;25.08;23.57324;984.1071;;;;
2019/04/23 06:26:18;;;;;;;5.6;4.5;;;;;;;25.1;23.53906;984.1386;;;;
2019/04/23 06:28:55;;;;;;;5.1;4.6;;;;;;;25.15;23.42285;984.0983;;;;
2019/04/23 06:31:22;;;;;;;5.1;4.6;;;;;;;25.18;23.47168;984.0631;;;;
2019/04/23 06:33:53;;;;;;;5;4.5;;;;;;;25.24;23.4043;984.1035;;;;
2019/04/23 06:36:24;;;;;;;5.9;4.8;;;;;;;25.25;23.4043;984.1192;;;;
2019/04/23 06:38:54;;;;;;;5.3;4.4;;;;;;;25.3;23.37207;984.057;;;;
2019/04/23 06:41:26;;;;;;;5.4;4.3;;;;;;;25.35;23.32715;984.1674;;;;
2019/04/23 06:44:00;;;;;;;5.1;4.4;;;;;;;25.37;23.39844;984.1047;;;;
2019/04/23 06:46:27;;;;;;;5.8;4.5;;;;;;;25.4;23.36426;984.1108;;;;
2019/04/23 06:48:57;;;;;;;5.6;4.8;;;;;;;25.41;23.40039;984.0854;;;;
2019/04/23 06:51:28;;;;;;;5.1;4.5;;;;;;;25.46;23.34375;984.1136;;;;
2019/04/23 06:53:59;;;;;;;5.5;4.8;;;;;;;25.46;23.36816;983.9763;;;;
2019/04/23 06:56:30;;;;;;;5.2;4.6;;;;;;;25.5;23.37012;984.0393;;;;
2019/04/23 06:59:00;;;;;;;5.1;4.6;;;;;;;25.58;23.30273;984.0106;;;;
2019/04/23 07:01:31;;;;;;;5.6;4.8;;;;;;;25.62;23.24609;983.8796;;;;
2019/04/23 07:04:02;;;;;;;5.9;4.5;;;;;;;25.68;23.21289;983.8645;;;;
2019/04/23 07:06:31;;;;;;;6.2;5;;;;;;;25.81;23.06543;983.8499;;;;
2019/04/23 07:09:05;;;;;;;4.8;4.4;;;;;;;25.91;22.92773;983.8215;;;;
2019/04/23 07:11:33;;;;;;;6.6;5;;;;;;;25.98;22.83594;983.8064;;;;
2019/04/23 07:14:04;;;;;;;6.5;5.1;;;;;;;26.15;22.64355;983.7173;;;;
2019/04/23 07:16:34;;;;;;;5.5;4.9;;;;;;;26.3;22.4248;983.7475;;;;
2019/04/23 07:19:06;;;;;;;5.2;4.7;;;;;;;26.41;22.39453;983.7659;;;;
2019/04/23 07:21:35;;;;;;;5.3;4.8;;;;;;;26.42;22.31152;983.6757;;;;
2019/04/23 07:24:06;;;;;;;5.2;4.7;;;;;;;26.39;22.46484;983.6245;;;;
2019/04/23 07:26:37;;;;;;;5.9;5.3;;;;;;;26.4;22.58398;983.6855;;;;
2019/04/23 07:29:08;;;;;;;6;5.1;;;;;;;26.35;22.62891;983.6672;;;;
2019/04/23 07:31:38;;;;;;;5.5;4.8;;;;;;;26.26;22.80273;983.6591;;;;
2019/04/23 07:34:09;;;;;;;8.3;5.3;;;;;;;26.26;23.01758;983.5842;;;;
2019/04/23 07:36:39;;;;;;;6.4;5.2;;;;;;;26.33;22.91309;983.5905;;;;
2019/04/23 07:39:13;;;;;;;6;4.8;;;;;;;26.21;23.08594;983.4918;;;;
2019/04/23 07:46:49;;;;;;;5.5;5;;;;;;;26.29;23.1377;983.4313;;;;
2019/04/23 07:49:13;;;;;;;5.8;5.1;;;;;;;26.34;23.22363;983.467;;;;
2019/04/23 07:51:44;;;;;;;6.1;5;;;;;;;26.56;22.98438;983.4487;;;;
2019/04/23 07:54:16;;;;;;;6.7;4.8;;;;;;;26.72;22.91016;983.481;;;;
2019/04/23 07:56:45;;;;;;;5.4;4.8;;;;;;;26.73;22.875;983.4691;;;;
2019/04/23 07:59:18;;;;;;;7.1;5.2;;;;;;;26.8;22.7832;983.3869;;;;
2019/04/23 08:01:51;;;;;;;5.8;5.2;;;;;;;26.89;22.69238;983.5048;;;;
2019/04/23 08:04:38;;;;;;;6.5;4.9;;;;;;;26.88;22.73926;983.5264;;;;
2019/04/23 08:07:07;;;;;;;7.1;5;;;;;;;27.13;22.62012;983.5452;;;;
2019/04/23 08:09:39;;;;;;;5.9;4.7;;;;;;;27.35;22.64453;983.5144;;;;
2019/04/23 08:12:20;;;;;;;10.1;5;;;;;;;27.54;22.58203;983.5734;;;;
2019/04/23 08:14:47;;;;;;;5.3;4.8;;;;;;;27.53;22.52246;983.5538;;;;
2019/04/23 08:17:24;;;;;;;6.5;4.8;;;;;;;27.92;22.06348;983.6309;;;;
2019/04/23 08:19:56;;;;;;;6.1;4.8;;;;;;;28.2;21.74316;983.6225;;;;
2019/04/23 08:22:25;;;;;;;6.1;4.7;;;;;;;28.14;21.82324;983.6111;;;;
2019/04/23 08:27:37;;;;;;;7.3;4.9;;;;;;;28.39;21.62012;983.65;;;;
2019/04/23 08:30:05;;;;;;;8;5;;;;;;;28.05;22.00977;983.5934;;;;
2019/04/23 08:32:32;;;;;;;7.6;4.6;;;;;;;27.94;22.21973;983.5992;;;;
2019/04/23 08:35:00;;;;;;;7.1;4.9;;;;;;;27.81;24.38574;983.6428;;;;
2019/04/23 08:37:32;;;;;;;5.6;4.8;;;;;;;27.74;22.52051;983.5735;;;;
2019/04/23 08:40:02;;;;;;;8;5;;;;;;;27.61;22.68066;983.5658;;;;
2019/04/23 08:42:43;;;;;;;5.4;4.9;;;;;;;27.67;22.63574;983.5872;;;;
2019/04/23 08:45:11;;;;;;;7.5;5.2;;;;;;;27.62;22.71777;983.5991;;;;
2019/04/23 08:47:46;;;;;;;7.2;4.9;;;;;;;27.37;23.0625;983.6147;;;;
2019/04/23 08:50:07;;;;;;;5.8;5;;;;;;;27.35;23.08496;983.5695;;;;
2019/04/23 08:52:32;;;;;;;7.3;4.9;;;;;;;27.42;23.16016;983.6758;;;;
2019/04/23 08:55:04;;;;;;;7.3;5.1;;;;;;;27.34;23.2041;983.7366;;;;
2019/04/23 08:57:35;;;;;;;6.1;4.9;;;;;;;27.28;23.34375;983.7541;;;;
2019/04/23 09:00:06;;;;;;;6.4;5.2;;;;;;;27.15;23.5752;983.7875;;;;
2019/04/23 09:02:37;;;;;;;6.2;4.7;;;;;;;27.06;23.59473;983.7631;;;;
2019/04/23 09:05:11;;;;;;;5.2;4.7;;;;;;;26.99;23.66211;983.6252;;;;
2019/04/23 09:07:44;;;;;;;8.6;4.9;;;;;;;26.91;24.03906;983.5837;;;;
2019/04/23 09:10:12;;;;;;;7;5.3;;;;;;;26.95;23.91016;983.5641;;;;
2019/04/23 09:12:43;;;;;;;7.8;5.3;;;;;;;26.65;24.77539;983.5728;;;;
2019/04/23 09:15:13;;;;;;;7.8;5.2;;;;;;;26.27;25.95605;983.5903;;;;
2019/04/23 09:17:47;;;;;;;8.5;5.7;;;;;;;26.09;26.52832;983.597;;;;
2019/04/23 09:20:15;;;;;;;8.1;5.2;;;;;;;25.85;26.7041;983.5203;;;;
2019/04/23 09:22:46;;;;;;;9;5.3;;;;;;;25.82;26.95215;983.5179;;;;
2019/04/23 09:25:17;;;;;;;8.9;5.7;;;;;;;25.61;27.22363;983.5087;;;;
2019/04/23 09:27:46;;;;;;;8.3;5.3;;;;;;;25.61;27.54492;983.485;;;;
2019/04/23 09:30:18;;;;;;;8.7;5.5;;;;;;;25.55;27.74316;983.5178;;;;
2019/04/23 09:32:55;;;;;;;7.3;5.2;;;;;;;25.53;27.77734;983.5372;;;;
2019/04/23 09:35:34;;;;;;;7.7;5.1;;;;;;;25.42;27.8418;983.501;;;;
2019/04/23 09:42:50;;;;;;;7.2;5.6;;;;;;;25.38;28.37402;983.4105;;;;
2019/04/23 09:45:27;;;;;;;10.4;5.5;;;;;;;25.36;28.75293;983.4239;;;;
2019/04/23 09:47:50;;;;;;;10.2;5.8;;;;;;;25.43;28.67383;983.4207;;;;
2019/04/23 09:50:20;;;;;;;9.6;5.6;;;;;;;25.62;28.44824;983.4733;;;;
2019/04/23 09:52:51;;;;;;;8.5;5.2;;;;;;;25.57;28.31445;983.4534;;;;
2019/04/23 09:55:21;;;;;;;9.2;5.7;;;;;;;25.43;28.54297;983.5442;;;;
2019/04/23 09:57:52;;;;;;;8.9;5.7;;;;;;;25.44;28.4375;983.5013;;;;
2019/04/23 10:00:23;;;;;;;7.4;5.5;;;;;;;25.35;28.65625;983.4691;;;;
2019/04/23 10:02:55;;;;;;;7.6;5.4;;;;;;;25.23;28.83887;983.4934;;;;
2019/04/23 10:05:24;;;;;;;9.1;5.7;;;;;;;25.34;28.58496;983.4788;;;;
2019/04/23 10:07:56;;;;;;;8.7;5;;;;;;;25.36;28.37305;983.5847;;;;
2019/04/23 10:10:25;;;;;;;9;5.7;;;;;;;25.24;28.43652;983.5503;;;;
2019/04/23 10:12:58;;;;;;;7.9;5.5;;;;;;;25.19;28.32617;983.5808;;;;
2019/04/23 10:15:26;;;;;;;7.6;5.3;;;;;;;25.16;28.47852;983.553;;;;
2019/04/23 10:17:58;;;;;;;11.7;5.7;;;;;;;25.12;28.41699;983.6351;;;;
2019/04/23 10:20:28;;;;;;;8.8;5.6;;;;;;;24.99;28.6582;983.6259;;;;
2019/04/23 10:22:59;;;;;;;8.4;5.5;;;;;;;25.07;28.50879;983.6756;;;;
2019/04/23 10:25:29;;;;;;;11.2;5.8;;;;;;;25.04;28.66016;983.6243;;;;
2019/04/23 10:28:01;;;;;;;8.9;5.4;;;;;;;25.1;28.71191;983.6445;;;;
2019/04/23 10:30:31;;;;;;;8.6;5.1;;;;;;;25.28;28.46289;983.6194;;;;
2019/04/23 10:33:02;;;;;;;8.8;5;;;;;;;25.21;28.63574;983.6578;;;;
2019/04/23 10:35:32;;;;;;;8.5;5.4;;;;;;;25.26;28.58008;983.5584;;;;
2019/04/23 10:38:03;;;;;;;10.4;5.7;;;;;;;25.18;28.77637;983.6102;;;;
2019/04/23 10:40:33;;;;;;;10.1;5.5;;;;;;;25.09;28.9375;983.6739;;;;
2019/04/23 10:43:05;;;;;;;9.9;5.4;;;;;;;25.11;28.92578;983.6094;;;;
2019/04/23 10:45:45;;;;;;;9.4;5.4;;;;;;;25.27;28.98438;983.6291;;;;
2019/04/23 10:48:41;;;;;;;9.1;5.5;;;;;;;25.33;28.82227;983.5786;;;;
2019/04/23 10:50:49;;;;;;;6.9;5.4;;;;;;;25.39;28.8252;983.6774;;;;
2019/04/23 10:53:21;;;;;;;6.6;5;;;;;;;25.49;28.60645;983.6431;;;;
2019/04/23 10:55:49;;;;;;;9;5.2;;;;;;;25.41;28.68457;983.6266;;;;
2019/04/23 10:58:19;;;;;;;11.3;5.7;;;;;;;25.38;28.91992;983.6714;;;;
2019/04/23 11:00:49;;;;;;;10.7;5.5;;;;;;;25.41;29.19531;983.6815;;;;
2019/04/23 11:03:20;;;;;;;11.4;5.6;;;;;;;25.35;29.13184;983.5689;;;;
2019/04/23 11:05:51;;;;;;;10;5.3;;;;;;;25.26;29.23242;983.5996;;;;
2019/04/23 11:08:26;;;;;;;9.3;5.4;;;;;;;25.17;29.39258;983.6219;;;;
2019/04/23 11:10:51;;;;;;;10.1;5.6;;;;;;;25.27;29.16211;983.6211;;;;
2019/04/23 11:13:23;;;;;;;8.2;4.9;;;;;;;25.38;29.03906;983.6242;;;;
2019/04/23 11:15:54;;;;;;;8.4;6.7;;;;;;;25.38;29.05078;983.6028;;;;
2019/04/23 11:18:24;;;;;;;9.2;5.5;;;;;;;25.43;28.9707;983.6306;;;;
2019/04/23 11:20:54;;;;;;;8.2;5.3;;;;;;;25.47;29.00781;983.6447;;;;
2019/04/23 11:23:25;;;;;;;8.4;5.3;;;;;;;25.43;29.05371;983.6484;;;;
2019/04/23 11:25:55;;;;;;;10.5;5.4;;;;;;;25.44;28.95996;983.5955;;;;
2019/04/23 11:28:26;;;;;;;8.9;5.6;;;;;;;25.44;28.97168;983.6778;;;;
2019/04/23 11:30:57;;;;;;;9.9;5.4;;;;;;;25.46;29.03223;983.6778;;;;
2019/04/23 11:33:29;;;;;;;9.9;5.6;;;;;;;25.44;28.99512;983.5563;;;;
2019/04/23 11:35:59;;;;;;;10.1;5.5;;;;;;;25.42;29.01758;983.6617;;;;
2019/04/23 11:38:28;;;;;;;8.4;5.3;;;;;;;25.51;28.9043;983.639;;;;
2019/04/23 11:40:59;;;;;;;6.9;5.4;;;;;;;25.31;29.18848;983.5823;;;;
2019/04/23 11:43:31;;;;;;;9;6;;;;;;;25.29;29.25781;983.6077;;;;
2019/04/23 11:46:01;;;;;;;11.9;5.7;;;;;;;25.27;29.30469;983.6074;;;;
2019/04/23 11:48:32;;;;;;;9.5;5.7;;;;;;;25.2;29.38281;983.5888;;;;
2019/04/23 11:51:03;;;;;;;11.3;5.5;;;;;;;25.19;29.27539;983.5396;;;;
2019/04/23 11:53:33;;;;;;;10.3;5.3;;;;;;;25.19;29.26367;983.5396;;;;
2019/04/23 11:56:05;;;;;;;11.1;5.4;;;;;;;25.15;29.26172;983.563;;;;
2019/04/23 11:58:30;;;;;;;11;5.4;;;;;;;25.05;29.43262;983.5561;;;;
2019/04/23 12:03:46;;;;;;;9.5;5.5;;;;;;;25.09;29.40039;983.5916;;;;
2019/04/23 12:06:18;;;;;;;8.9;5.2;;;;;;;25.04;29.70508;983.5948;;;;
2019/04/23 12:10:57;;;;;;;11.4;5.4;;;;;;;25.19;30.1416;983.6809;;;;
2019/04/23 12:13:35;;;;;;;8.5;5.4;;;;;;;25.18;30.46191;983.6983;;;;
2019/04/23 12:15:55;;;;;;;10.6;5.3;;;;;;;25.18;30.81738;983.6749;;;;
2019/04/23 12:18:28;;;;;;;9.8;5.7;;;;;;;25.21;31.09277;983.6816;;;;
2019/04/23 12:20:58;;;;;;;8.7;5.7;;;;;;;25.12;31.02637;983.6586;;;;
2019/04/23 12:23:27;;;;;;;9.4;5.5;;;;;;;25.11;31.28711;983.7014;;;;
2019/04/23 12:25:59;;;;;;;9.4;5.7;;;;;;;25.17;31.49316;983.7042;;;;
2019/04/23 12:28:28;;;;;;;11.4;5.9;;;;;;;25.26;31.20215;983.6428;;;;
2019/04/23 12:31:01;;;;;;;9.3;5.6;;;;;;;25.32;31.40918;983.6218;;;;
2019/04/23 12:33:29;;;;;;;9.5;5.6;;;;;;;25.41;30.88086;983.6718;;;;
2019/04/23 12:36:21;;;;;;;12;5.6;;;;;;;25.31;30.99219;983.6021;;;;
2019/04/23 12:38:33;;;;;;;8.6;5.3;;;;;;;25.36;31.3877;983.6298;;;;
2019/04/23 12:41:07;;;;;;;9.4;5.3;;;;;;;25.29;31.09766;983.6292;;;;
2019/04/23 12:43:35;;;;;;;9.5;5.4;;;;;;;25.31;31.30078;983.6509;;;;
2019/04/23 12:46:06;;;;;;;11.8;5.3;;;;;;;25.32;30.96973;983.7001;;;;
2019/04/23 12:48:38;;;;;;;11.1;5;;;;;;;25.46;31.12207;983.6819;;;;
2019/04/23 12:51:08;;;;;;;8.1;5.4;;;;;;;25.45;30.90723;983.6072;;;;
2019/04/23 12:53:39;;;;;;;11.5;5.2;;;;;;;25.5;30.79199;983.6233;;;;
2019/04/23 12:56:08;;;;;;;10.5;5.6;;;;;;;25.47;30.73047;983.6387;;;;
2019/04/23 12:58:41;;;;;;;9;5;;;;;;;25.6;30.64453;983.6381;;;;
2019/04/23 13:01:11;;;;;;;11;5.2;;;;;;;25.67;30.53125;983.6428;;;;
2019/04/23 13:03:41;;;;;;;10.2;5.4;;;;;;;25.42;30.81055;983.56;;;;
2019/04/23 13:06:11;;;;;;;10;5.6;;;;;;;25.5;30.3291;983.5941;;;;
2019/04/23 13:08:41;;;;;;;9.7;5.2;;;;;;;25.57;30.13184;983.426;;;;
2019/04/23 13:11:12;;;;;;;9.3;5.3;;;;;;;25.56;30.08398;983.5064;;;;
2019/04/23 13:13:43;;;;;;;13.9;5.5;;;;;;;25.55;29.99902;983.4689;;;;
2019/04/23 13:16:14;;;;;;;9.4;5.6;;;;;;;25.52;29.97461;983.4019;;;;
2019/04/23 13:18:44;;;;;;;10.2;5.6;;;;;;;25.52;29.83203;983.4745;;;;
2019/04/23 13:21:16;;;;;;;11.6;5.2;;;;;;;25.48;29.76953;983.3938;;;;
2019/04/23 13:23:59;;;;;;;10.5;5.3;;;;;;;25.53;29.58301;983.3861;;;;
2019/04/23 13:26:13;;;;;;;10.5;5.3;;;;;;;25.5;29.50977;983.3606;;;;
2019/04/23 13:29:01;;;;;;;10.2;4.5;;;;;;;25.54;29.04883;983.2863;;;;
2019/04/23 13:31:28;;;;;;;13.6;5.4;;;;;;;25.59;29.09961;983.2434;;;;
2019/04/23 13:34:05;;;;;;;9.7;5.5;;;;;;;25.63;28.75781;983.2695;;;;
2019/04/23 13:36:41;;;;;;;11;5.4;;;;;;;25.54;28.89453;983.1588;;;;
2019/04/23 13:39:13;;;;;;;14.8;5.5;;;;;;;25.57;28.84863;983.1825;;;;
2019/04/23 13:41:50;;;;;;;15.1;5.3;;;;;;;25.57;28.58789;983.1336;;;;
2019/04/23 13:44:19;;;;;;;11.9;5.4;;;;;;;25.66;28.41602;983.1047;;;;
2019/04/23 13:46:49;;;;;;;10.3;5.2;;;;;;;25.62;28.25879;983.1161;;;;
2019/04/23 13:49:20;;;;;;;12.4;4.9;;;;;;;25.61;28.06738;983.1241;;;;
2019/04/23 13:51:52;;;;;;;12.5;5.1;;;;;;;25.73;27.59961;983.1387;;;;
2019/04/23 13:54:22;;;;;;;12.8;5;;;;;;;25.73;27.62402;983.0681;;;;
2019/04/23 13:56:53;;;;;;;10.6;4.9;;;;;;;25.73;27.57617;983.1191;;;;
2019/04/23 13:59:24;;;;;;;10.4;5.2;;;;;;;25.78;27.7334;983.1253;;;;
2019/04/23 14:01:54;;;;;;;11.8;5.4;;;;;;;25.71;27.71777;983.0658;;;;
2019/04/23 14:04:52;;;;;;;8.9;4.9;;;;;;;25.71;27.83594;983.0973;;;;
2019/04/23 14:06:55;;;;;;;10;5;;;;;;;25.75;27.93457;983.1408;;;;
2019/04/23 14:09:26;;;;;;;9.3;5.3;;;;;;;25.74;27.85059;983.0798;;;;
2019/04/23 14:11:59;;;;;;;12.3;5;;;;;;;25.8;27.5332;983.0566;;;;
2019/04/23 14:14:27;;;;;;;10.8;4.9;;;;;;;25.82;27.59375;983.0686;;;;
2019/04/23 14:16:58;;;;;;;11.5;5.1;;;;;;;25.73;27.89648;983.0661;;;;
2019/04/23 14:19:28;;;;;;;12.8;5.1;;;;;;;25.75;27.73145;983.0192;;;;
2019/04/23 14:22:02;;;;;;;14.4;5.4;;;;;;;25.83;27.93848;983.012;;;;
2019/04/23 14:24:29;;;;;;;12.1;4.9;;;;;;;25.91;27.81348;982.9695;;;;
2019/04/23 14:27:00;;;;;;;12.5;5.3;;;;;;;25.88;28.03711;982.932;;;;
2019/04/23 14:29:30;;;;;;;13;5.2;;;;;;;25.92;28.3252;982.9243;;;;
2019/04/23 14:32:01;;;;;;;12;5.2;;;;;;;25.94;27.79102;982.946;;;;
2019/04/23 14:34:34;;;;;;;11.8;5.2;;;;;;;25.83;28.28418;982.9235;;;;
2019/04/23 14:37:04;;;;;;;13.5;5.3;;;;;;;25.9;28.0498;982.8516;;;;
2019/04/23 14:39:45;;;;;;;11.2;5.5;;;;;;;25.93;28.34863;982.8499;;;;
2019/04/23 14:42:08;;;;;;;12.2;5.4;;;;;;;25.97;27.90039;982.9935;;;;
2019/04/23 14:44:39;;;;;;;9.9;5.1;;;;;;;25.99;28.12695;982.9445;;;;
2019/04/23 14:47:12;;;;;;;12.8;5.3;;;;;;;25.88;28.04883;982.9576;;;;
2019/04/23 14:49:42;;;;;;;12.1;4.9;;;;;;;25.93;27.60059;982.9578;;;;
2019/04/23 14:52:10;;;;;;;13.4;5.1;;;;;;;25.91;27.59863;982.936;;;;
2019/04/23 14:54:40;;;;;;;14.4;5.4;;;;;;;25.93;27.88574;982.9166;;;;
2019/04/23 14:57:10;;;;;;;12.2;5.5;;;;;;;25.92;27.93262;983.0067;;;;
2019/04/23 14:59:40;;;;;;;11.4;5.5;;;;;;;25.92;27.61133;982.9166;;;;
2019/04/23 15:02:10;;;;;;;13.7;5;;;;;;;25.82;27.84375;982.949;;;;
2019/04/23 15:04:41;;;;;;;12;5.3;;;;;;;25.87;27.90625;982.9103;;;;
2019/04/23 15:07:12;;;;;;;13;5.3;;;;;;;25.85;28.03516;982.8333;;;;